< < Back
Terminal Aerodrome Forecast


Current Version              Previous Versions:   1  2  3  4  5  6  7  8  9  

Terminal Aerodrome Forecast

846
FTAK31 PAJN 282300
TAFAHN
TAF
PAHN 282330Z 2900/2924 VRB03KT P6SM -RA SCT015 BKN040 OVC060
      TEMPO 2900/2904 SCT008 BKN012 OVC040
     FM290600 VRB04KT 5SM -RA BR SCT010 BKN025 OVC050
     FM291400 VRB04KT P6SM -RA SCT015 OVC050
     FM292100 12006KT P6SM -RA SCT015 OVC050
      AMD LTD TO CLD VIS AND WIND=

Latest METAR

567
SAUS70 KWBC 282354
MTRAHN
METAR KAHN 282351Z 33008KT 10SM CLR 28/15 A2990 RMK AO2 SLP117 T02830150
10333 20283 53008


USA.gov is the U.S. government's official web portal to all federal, state and local government web resources and services.